sensor_id;sensor_type;location;lat;lon;timestamp;P1;durP1;ratioP1;P2;durP2;ratioP2
56319;SDS011;42226;42.382;23.748;2022-10-16T00:01:41;7.05;;;6.35;;
56319;SDS011;42226;42.382;23.748;2022-10-16T00:04:09;8.07;;;6.13;;
56319;SDS011;42226;42.382;23.748;2022-10-16T00:06:37;7.57;;;6.00;;
56319;SDS011;42226;42.382;23.748;2022-10-16T00:09:05;8.80;;;6.25;;
56319;SDS011;42226;42.382;23.748;2022-10-16T00:11:35;7.68;;;6.50;;
56319;SDS011;42226;42.382;23.748;2022-10-16T00:14:07;7.63;;;6.13;;
56319;SDS011;42226;42.382;23.748;2022-10-16T00:16:40;6.80;;;6.03;;
56319;SDS011;42226;42.382;23.748;2022-10-16T00:19:07;9.05;;;5.93;;
56319;SDS011;42226;42.382;23.748;2022-10-16T00:21:37;7.25;;;6.50;;
56319;SDS011;42226;42.382;23.748;2022-10-16T00:24:05;8.38;;;6.78;;
56319;SDS011;42226;42.382;23.748;2022-10-16T00:26:35;9.52;;;7.00;;
56319;SDS011;42226;42.382;23.748;2022-10-16T00:29:03;7.55;;;6.75;;
56319;SDS011;42226;42.382;23.748;2022-10-16T00:31:31;10.60;;;7.18;;
56319;SDS011;42226;42.382;23.748;2022-10-16T00:33:58;11.60;;;7.18;;
56319;SDS011;42226;42.382;23.748;2022-10-16T00:36:26;9.07;;;7.22;;
56319;SDS011;42226;42.382;23.748;2022-10-16T00:38:54;8.50;;;6.93;;
56319;SDS011;42226;42.382;23.748;2022-10-16T00:41:25;10.85;;;7.20;;
56319;SDS011;42226;42.382;23.748;2022-10-16T00:43:57;9.10;;;7.18;;
56319;SDS011;42226;42.382;23.748;2022-10-16T00:46:31;9.50;;;7.05;;
56319;SDS011;42226;42.382;23.748;2022-10-16T00:49:09;8.27;;;7.30;;
56319;SDS011;42226;42.382;23.748;2022-10-16T00:51:45;8.25;;;7.30;;
56319;SDS011;42226;42.382;23.748;2022-10-16T00:54:26;8.82;;;7.22;;
56319;SDS011;42226;42.382;23.748;2022-10-16T00:56:56;11.55;;;7.68;;
56319;SDS011;42226;42.382;23.748;2022-10-16T00:59:29;8.60;;;7.70;;
56319;SDS011;42226;42.382;23.748;2022-10-16T01:02:00;8.88;;;7.97;;
56319;SDS011;42226;42.382;23.748;2022-10-16T01:04:32;7.72;;;6.63;;
56319;SDS011;42226;42.382;23.748;2022-10-16T01:07:07;10.15;;;7.63;;
56319;SDS011;42226;42.382;23.748;2022-10-16T01:13:05;8.60;;;7.80;;
56319;SDS011;42226;42.382;23.748;2022-10-16T01:18:59;8.68;;;7.78;;
56319;SDS011;42226;42.382;23.748;2022-10-16T01:21:49;10.05;;;8.50;;
56319;SDS011;42226;42.382;23.748;2022-10-16T01:27:31;10.52;;;7.70;;
56319;SDS011;42226;42.382;23.748;2022-10-16T01:30:13;11.48;;;8.07;;
56319;SDS011;42226;42.382;23.748;2022-10-16T01:35:46;9.98;;;8.20;;
56319;SDS011;42226;42.382;23.748;2022-10-16T01:38:24;9.23;;;8.32;;
56319;SDS011;42226;42.382;23.748;2022-10-16T01:41:06;13.32;;;8.90;;
56319;SDS011;42226;42.382;23.748;2022-10-16T01:43:41;10.50;;;7.80;;
56319;SDS011;42226;42.382;23.748;2022-10-16T01:46:15;9.30;;;8.18;;
56319;SDS011;42226;42.382;23.748;2022-10-16T01:48:47;8.75;;;7.35;;
56319;SDS011;42226;42.382;23.748;2022-10-16T01:51:15;8.88;;;7.97;;
56319;SDS011;42226;42.382;23.748;2022-10-16T01:53:46;11.90;;;8.88;;
56319;SDS011;42226;42.382;23.748;2022-10-16T01:56:17;8.70;;;7.80;;
56319;SDS011;42226;42.382;23.748;2022-10-16T01:58:49;8.70;;;7.85;;
56319;SDS011;42226;42.382;23.748;2022-10-16T02:01:28;8.85;;;7.95;;
56319;SDS011;42226;42.382;23.748;2022-10-16T02:04:01;10.57;;;8.32;;
56319;SDS011;42226;42.382;23.748;2022-10-16T02:06:47;10.13;;;8.77;;
56319;SDS011;42226;42.382;23.748;2022-10-16T02:09:14;9.63;;;8.35;;
56319;SDS011;42226;42.382;23.748;2022-10-16T02:11:43;9.57;;;8.55;;
56319;SDS011;42226;42.382;23.748;2022-10-16T02:14:10;9.43;;;8.05;;
56319;SDS011;42226;42.382;23.748;2022-10-16T02:16:39;8.75;;;7.90;;
56319;SDS011;42226;42.382;23.748;2022-10-16T02:19:09;9.18;;;8.20;;
56319;SDS011;42226;42.382;23.748;2022-10-16T02:21:44;11.77;;;8.10;;
56319;SDS011;42226;42.382;23.748;2022-10-16T02:24:26;13.60;;;8.52;;
56319;SDS011;42226;42.382;23.748;2022-10-16T02:27:10;10.82;;;8.20;;
56319;SDS011;42226;42.382;23.748;2022-10-16T02:29:45;9.15;;;8.02;;
56319;SDS011;42226;42.382;23.748;2022-10-16T02:32:19;10.57;;;8.00;;
56319;SDS011;42226;42.382;23.748;2022-10-16T02:34:50;9.63;;;8.10;;
56319;SDS011;42226;42.382;23.748;2022-10-16T02:37:18;9.18;;;8.00;;
56319;SDS011;42226;42.382;23.748;2022-10-16T02:39:46;10.30;;;8.35;;
56319;SDS011;42226;42.382;23.748;2022-10-16T02:42:13;11.13;;;8.20;;
56319;SDS011;42226;42.382;23.748;2022-10-16T02:44:44;9.90;;;7.93;;
56319;SDS011;42226;42.382;23.748;2022-10-16T02:47:11;10.15;;;8.40;;
56319;SDS011;42226;42.382;23.748;2022-10-16T02:49:39;10.13;;;8.25;;
56319;SDS011;42226;42.382;23.748;2022-10-16T02:52:06;9.55;;;8.07;;
56319;SDS011;42226;42.382;23.748;2022-10-16T02:54:34;10.23;;;8.07;;
56319;SDS011;42226;42.382;23.748;2022-10-16T02:57:01;10.68;;;8.63;;
56319;SDS011;42226;42.382;23.748;2022-10-16T02:59:29;10.23;;;8.80;;
56319;SDS011;42226;42.382;23.748;2022-10-16T03:01:56;11.88;;;8.55;;
56319;SDS011;42226;42.382;23.748;2022-10-16T03:04:23;15.13;;;9.05;;
56319;SDS011;42226;42.382;23.748;2022-10-16T03:06:51;13.13;;;9.00;;
56319;SDS011;42226;42.382;23.748;2022-10-16T03:09:17;10.70;;;9.27;;
56319;SDS011;42226;42.382;23.748;2022-10-16T03:11:44;10.38;;;8.98;;
56319;SDS011;42226;42.382;23.748;2022-10-16T03:14:11;10.65;;;8.90;;
56319;SDS011;42226;42.382;23.748;2022-10-16T03:16:39;12.25;;;9.43;;
56319;SDS011;42226;42.382;23.748;2022-10-16T03:19:06;10.95;;;8.27;;
56319;SDS011;42226;42.382;23.748;2022-10-16T03:21:34;9.77;;;7.75;;
56319;SDS011;42226;42.382;23.748;2022-10-16T03:24:01;10.50;;;8.88;;
56319;SDS011;42226;42.382;23.748;2022-10-16T03:26:28;11.77;;;8.32;;
56319;SDS011;42226;42.382;23.748;2022-10-16T03:28:55;10.05;;;7.95;;
56319;SDS011;42226;42.382;23.748;2022-10-16T03:31:22;9.95;;;8.48;;
56319;SDS011;42226;42.382;23.748;2022-10-16T03:33:50;12.60;;;9.35;;
56319;SDS011;42226;42.382;23.748;2022-10-16T03:36:17;9.88;;;8.70;;
56319;SDS011;42226;42.382;23.748;2022-10-16T03:38:44;13.52;;;9.60;;
56319;SDS011;42226;42.382;23.748;2022-10-16T03:41:12;13.13;;;10.65;;
56319;SDS011;42226;42.382;23.748;2022-10-16T03:43:40;26.15;;;16.83;;
56319;SDS011;42226;42.382;23.748;2022-10-16T03:46:06;21.88;;;17.35;;
56319;SDS011;42226;42.382;23.748;2022-10-16T03:48:33;16.10;;;13.35;;
56319;SDS011;42226;42.382;23.748;2022-10-16T03:51:01;11.48;;;9.48;;
56319;SDS011;42226;42.382;23.748;2022-10-16T03:53:28;12.45;;;9.60;;
56319;SDS011;42226;42.382;23.748;2022-10-16T03:55:55;10.63;;;9.10;;
56319;SDS011;42226;42.382;23.748;2022-10-16T03:58:22;9.52;;;8.52;;
56319;SDS011;42226;42.382;23.748;2022-10-16T04:00:49;10.77;;;8.23;;
56319;SDS011;42226;42.382;23.748;2022-10-16T04:03:17;9.02;;;7.55;;
56319;SDS011;42226;42.382;23.748;2022-10-16T04:05:44;10.20;;;8.65;;
56319;SDS011;42226;42.382;23.748;2022-10-16T04:08:11;11.90;;;8.85;;
56319;SDS011;42226;42.382;23.748;2022-10-16T04:10:39;9.20;;;8.18;;
56319;SDS011;42226;42.382;23.748;2022-10-16T04:13:08;9.75;;;8.05;;
56319;SDS011;42226;42.382;23.748;2022-10-16T04:15:34;9.45;;;8.32;;
56319;SDS011;42226;42.382;23.748;2022-10-16T04:18:02;10.60;;;8.07;;
56319;SDS011;42226;42.382;23.748;2022-10-16T04:20:29;11.35;;;8.68;;
56319;SDS011;42226;42.382;23.748;2022-10-16T04:22:55;10.88;;;8.52;;
56319;SDS011;42226;42.382;23.748;2022-10-16T04:25:23;10.27;;;9.15;;
56319;SDS011;42226;42.382;23.748;2022-10-16T04:27:52;9.93;;;8.93;;
56319;SDS011;42226;42.382;23.748;2022-10-16T04:30:19;11.35;;;8.27;;
56319;SDS011;42226;42.382;23.748;2022-10-16T04:32:51;13.38;;;8.68;;
56319;SDS011;42226;42.382;23.748;2022-10-16T04:35:19;11.68;;;9.13;;
56319;SDS011;42226;42.382;23.748;2022-10-16T04:37:48;12.07;;;9.13;;
56319;SDS011;42226;42.382;23.748;2022-10-16T04:40:16;9.13;;;8.13;;
56319;SDS011;42226;42.382;23.748;2022-10-16T04:42:43;11.27;;;9.30;;
56319;SDS011;42226;42.382;23.748;2022-10-16T04:45:10;12.98;;;9.98;;
56319;SDS011;42226;42.382;23.748;2022-10-16T04:47:37;11.63;;;9.40;;
56319;SDS011;42226;42.382;23.748;2022-10-16T04:50:05;12.27;;;9.02;;
56319;SDS011;42226;42.382;23.748;2022-10-16T04:52:32;11.20;;;8.40;;
56319;SDS011;42226;42.382;23.748;2022-10-16T04:55:01;9.65;;;8.20;;
56319;SDS011;42226;42.382;23.748;2022-10-16T04:57:29;12.50;;;8.52;;
56319;SDS011;42226;42.382;23.748;2022-10-16T04:59:56;14.18;;;9.68;;
56319;SDS011;42226;42.382;23.748;2022-10-16T05:02:24;15.57;;;12.07;;
56319;SDS011;42226;42.382;23.748;2022-10-16T05:04:51;10.57;;;9.07;;
56319;SDS011;42226;42.382;23.748;2022-10-16T05:07:19;11.52;;;9.27;;
56319;SDS011;42226;42.382;23.748;2022-10-16T05:09:45;10.77;;;8.68;;
56319;SDS011;42226;42.382;23.748;2022-10-16T05:12:14;9.95;;;8.95;;
56319;SDS011;42226;42.382;23.748;2022-10-16T05:14:40;12.85;;;10.23;;
56319;SDS011;42226;42.382;23.748;2022-10-16T05:17:07;11.52;;;9.60;;
56319;SDS011;42226;42.382;23.748;2022-10-16T05:19:34;9.80;;;8.13;;
56319;SDS011;42226;42.382;23.748;2022-10-16T05:22:01;12.15;;;8.73;;
56319;SDS011;42226;42.382;23.748;2022-10-16T05:24:29;10.82;;;8.98;;
56319;SDS011;42226;42.382;23.748;2022-10-16T05:26:56;11.55;;;9.77;;
56319;SDS011;42226;42.382;23.748;2022-10-16T05:29:23;10.52;;;9.50;;
56319;SDS011;42226;42.382;23.748;2022-10-16T05:31:51;10.77;;;9.68;;
56319;SDS011;42226;42.382;23.748;2022-10-16T05:34:19;11.45;;;9.10;;
56319;SDS011;42226;42.382;23.748;2022-10-16T05:36:46;11.73;;;8.82;;
56319;SDS011;42226;42.382;23.748;2022-10-16T05:39:14;10.48;;;8.82;;
56319;SDS011;42226;42.382;23.748;2022-10-16T05:41:42;9.93;;;7.75;;
56319;SDS011;42226;42.382;23.748;2022-10-16T05:44:09;8.82;;;7.93;;
56319;SDS011;42226;42.382;23.748;2022-10-16T05:46:37;8.85;;;8.02;;
56319;SDS011;42226;42.382;23.748;2022-10-16T05:49:04;9.60;;;7.90;;
56319;SDS011;42226;42.382;23.748;2022-10-16T05:51:31;10.38;;;8.23;;
56319;SDS011;42226;42.382;23.748;2022-10-16T05:53:59;10.73;;;7.95;;
56319;SDS011;42226;42.382;23.748;2022-10-16T05:56:26;8.93;;;7.82;;
56319;SDS011;42226;42.382;23.748;2022-10-16T05:58:53;8.80;;;7.50;;
56319;SDS011;42226;42.382;23.748;2022-10-16T06:01:22;10.63;;;7.82;;
56319;SDS011;42226;42.382;23.748;2022-10-16T06:03:52;7.65;;;6.65;;
56319;SDS011;42226;42.382;23.748;2022-10-16T06:06:21;8.55;;;7.63;;
56319;SDS011;42226;42.382;23.748;2022-10-16T06:08:51;11.00;;;7.75;;
56319;SDS011;42226;42.382;23.748;2022-10-16T06:11:19;9.63;;;7.85;;
56319;SDS011;42226;42.382;23.748;2022-10-16T06:13:53;8.40;;;7.22;;
56319;SDS011;42226;42.382;23.748;2022-10-16T06:16:24;9.13;;;8.23;;
56319;SDS011;42226;42.382;23.748;2022-10-16T06:18:52;9.93;;;8.10;;
56319;SDS011;42226;42.382;23.748;2022-10-16T06:21:23;7.80;;;7.03;;
56319;SDS011;42226;42.382;23.748;2022-10-16T06:23:51;8.40;;;7.22;;
56319;SDS011;42226;42.382;23.748;2022-10-16T06:26:20;8.30;;;7.38;;
56319;SDS011;42226;42.382;23.748;2022-10-16T06:28:50;8.13;;;7.32;;
56319;SDS011;42226;42.382;23.748;2022-10-16T06:31:17;8.90;;;7.43;;
56319;SDS011;42226;42.382;23.748;2022-10-16T06:33:44;10.27;;;7.82;;
56319;SDS011;42226;42.382;23.748;2022-10-16T06:36:13;8.23;;;7.43;;
56319;SDS011;42226;42.382;23.748;2022-10-16T06:38:43;9.55;;;7.38;;
56319;SDS011;42226;42.382;23.748;2022-10-16T06:41:11;8.55;;;7.65;;
56319;SDS011;42226;42.382;23.748;2022-10-16T06:43:42;8.35;;;7.05;;
56319;SDS011;42226;42.382;23.748;2022-10-16T06:46:13;7.78;;;6.97;;
56319;SDS011;42226;42.382;23.748;2022-10-16T06:48:43;7.95;;;7.03;;
56319;SDS011;42226;42.382;23.748;2022-10-16T06:51:11;8.35;;;6.72;;
56319;SDS011;42226;42.382;23.748;2022-10-16T06:53:42;8.18;;;7.28;;
56319;SDS011;42226;42.382;23.748;2022-10-16T06:56:14;8.90;;;7.93;;
56319;SDS011;42226;42.382;23.748;2022-10-16T06:58:47;8.57;;;7.70;;
56319;SDS011;42226;42.382;23.748;2022-10-16T07:01:15;12.32;;;8.10;;
56319;SDS011;42226;42.382;23.748;2022-10-16T07:03:47;8.90;;;7.60;;
56319;SDS011;42226;42.382;23.748;2022-10-16T07:06:16;8.73;;;7.82;;
56319;SDS011;42226;42.382;23.748;2022-10-16T07:08:46;9.80;;;7.68;;
56319;SDS011;42226;42.382;23.748;2022-10-16T07:11:15;8.52;;;7.63;;
56319;SDS011;42226;42.382;23.748;2022-10-16T07:13:46;8.15;;;7.35;;
56319;SDS011;42226;42.382;23.748;2022-10-16T07:16:15;9.32;;;7.65;;
56319;SDS011;42226;42.382;23.748;2022-10-16T07:18:46;8.80;;;7.90;;
56319;SDS011;42226;42.382;23.748;2022-10-16T07:21:16;9.63;;;8.73;;
56319;SDS011;42226;42.382;23.748;2022-10-16T07:23:55;8.20;;;7.50;;
56319;SDS011;42226;42.382;23.748;2022-10-16T07:26:27;11.43;;;7.85;;
56319;SDS011;42226;42.382;23.748;2022-10-16T07:28:56;8.13;;;7.28;;
56319;SDS011;42226;42.382;23.748;2022-10-16T07:31:24;8.98;;;7.70;;
56319;SDS011;42226;42.382;23.748;2022-10-16T07:33:51;8.80;;;7.40;;
56319;SDS011;42226;42.382;23.748;2022-10-16T07:36:20;8.75;;;7.38;;
56319;SDS011;42226;42.382;23.748;2022-10-16T07:38:47;8.80;;;7.13;;
56319;SDS011;42226;42.382;23.748;2022-10-16T07:41:16;7.97;;;7.18;;
56319;SDS011;42226;42.382;23.748;2022-10-16T07:43:49;8.18;;;7.38;;
56319;SDS011;42226;42.382;23.748;2022-10-16T07:46:20;8.80;;;7.05;;
56319;SDS011;42226;42.382;23.748;2022-10-16T07:48:49;8.43;;;7.25;;
56319;SDS011;42226;42.382;23.748;2022-10-16T07:51:17;9.80;;;7.00;;
56319;SDS011;42226;42.382;23.748;2022-10-16T07:53:47;7.15;;;6.55;;
56319;SDS011;42226;42.382;23.748;2022-10-16T07:56:15;7.20;;;6.47;;
56319;SDS011;42226;42.382;23.748;2022-10-16T07:58:44;9.38;;;6.13;;
56319;SDS011;42226;42.382;23.748;2022-10-16T08:01:13;8.10;;;6.05;;
56319;SDS011;42226;42.382;23.748;2022-10-16T08:03:42;7.93;;;6.15;;
56319;SDS011;42226;42.382;23.748;2022-10-16T08:06:15;7.80;;;6.50;;
56319;SDS011;42226;42.382;23.748;2022-10-16T08:08:44;7.90;;;6.70;;
56319;SDS011;42226;42.382;23.748;2022-10-16T08:11:11;6.63;;;6.00;;
56319;SDS011;42226;42.382;23.748;2022-10-16T08:13:40;8.45;;;5.82;;
56319;SDS011;42226;42.382;23.748;2022-10-16T08:16:07;6.30;;;5.70;;
56319;SDS011;42226;42.382;23.748;2022-10-16T08:18:39;8.45;;;5.85;;
56319;SDS011;42226;42.382;23.748;2022-10-16T08:21:07;7.97;;;6.32;;
56319;SDS011;42226;42.382;23.748;2022-10-16T08:23:40;7.05;;;6.35;;
56319;SDS011;42226;42.382;23.748;2022-10-16T08:26:07;6.80;;;5.90;;
56319;SDS011;42226;42.382;23.748;2022-10-16T08:28:35;7.53;;;6.38;;
56319;SDS011;42226;42.382;23.748;2022-10-16T08:31:06;5.68;;;5.18;;
56319;SDS011;42226;42.382;23.748;2022-10-16T08:33:38;7.18;;;6.05;;
56319;SDS011;42226;42.382;23.748;2022-10-16T08:36:07;6.60;;;6.00;;
56319;SDS011;42226;42.382;23.748;2022-10-16T08:38:35;6.90;;;6.20;;
56319;SDS011;42226;42.382;23.748;2022-10-16T08:41:27;6.55;;;5.63;;
56319;SDS011;42226;42.382;23.748;2022-10-16T08:44:36;6.65;;;5.97;;
56319;SDS011;42226;42.382;23.748;2022-10-16T08:47:30;6.00;;;5.50;;
56319;SDS011;42226;42.382;23.748;2022-10-16T08:50:12;6.65;;;5.50;;
56319;SDS011;42226;42.382;23.748;2022-10-16T08:52:44;5.90;;;5.40;;
56319;SDS011;42226;42.382;23.748;2022-10-16T08:58:26;6.90;;;5.10;;
56319;SDS011;42226;42.382;23.748;2022-10-16T09:01:00;8.20;;;5.90;;
56319;SDS011;42226;42.382;23.748;2022-10-16T09:03:38;7.32;;;5.72;;
56319;SDS011;42226;42.382;23.748;2022-10-16T09:06:45;8.48;;;5.55;;
56319;SDS011;42226;42.382;23.748;2022-10-16T09:12:37;6.00;;;5.40;;
56319;SDS011;42226;42.382;23.748;2022-10-16T09:15:29;6.30;;;5.05;;
56319;SDS011;42226;42.382;23.748;2022-10-16T09:20:51;6.97;;;5.22;;
56319;SDS011;42226;42.382;23.748;2022-10-16T09:23:26;6.30;;;5.22;;
56319;SDS011;42226;42.382;23.748;2022-10-16T09:26:02;5.28;;;4.78;;
56319;SDS011;42226;42.382;23.748;2022-10-16T09:28:35;7.10;;;4.95;;
56319;SDS011;42226;42.382;23.748;2022-10-16T09:31:02;5.55;;;4.57;;
56319;SDS011;42226;42.382;23.748;2022-10-16T09:33:29;5.35;;;4.72;;
56319;SDS011;42226;42.382;23.748;2022-10-16T09:36:05;5.22;;;4.55;;
56319;SDS011;42226;42.382;23.748;2022-10-16T09:38:33;6.47;;;4.88;;
56319;SDS011;42226;42.382;23.748;2022-10-16T09:43:52;5.63;;;4.50;;
56319;SDS011;42226;42.382;23.748;2022-10-16T09:46:24;4.97;;;4.47;;
56319;SDS011;42226;42.382;23.748;2022-10-16T09:49:21;5.82;;;4.32;;
56319;SDS011;42226;42.382;23.748;2022-10-16T09:52:03;5.07;;;4.30;;
56319;SDS011;42226;42.382;23.748;2022-10-16T09:54:32;5.95;;;4.65;;
56319;SDS011;42226;42.382;23.748;2022-10-16T09:57:06;4.90;;;4.50;;
56319;SDS011;42226;42.382;23.748;2022-10-16T09:59:59;5.40;;;4.90;;
56319;SDS011;42226;42.382;23.748;2022-10-16T10:02:31;5.38;;;4.72;;
56319;SDS011;42226;42.382;23.748;2022-10-16T10:05:06;5.15;;;4.57;;
56319;SDS011;42226;42.382;23.748;2022-10-16T10:07:55;6.35;;;4.50;;
56319;SDS011;42226;42.382;23.748;2022-10-16T10:10:34;5.53;;;4.40;;
56319;SDS011;42226;42.382;23.748;2022-10-16T10:13:21;5.28;;;4.13;;
56319;SDS011;42226;42.382;23.748;2022-10-16T10:15:50;4.90;;;4.05;;
56319;SDS011;42226;42.382;23.748;2022-10-16T10:18:18;4.40;;;4.00;;
56319;SDS011;42226;42.382;23.748;2022-10-16T10:20:59;4.75;;;4.35;;
56319;SDS011;42226;42.382;23.748;2022-10-16T10:23:29;6.28;;;4.60;;
56319;SDS011;42226;42.382;23.748;2022-10-16T10:31:45;4.90;;;4.00;;
56319;SDS011;42226;42.382;23.748;2022-10-16T10:34:57;4.72;;;4.15;;
56319;SDS011;42226;42.382;23.748;2022-10-16T10:37:42;4.80;;;4.15;;
56319;SDS011;42226;42.382;23.748;2022-10-16T10:40:45;5.05;;;3.92;;
56319;SDS011;42226;42.382;23.748;2022-10-16T10:43:42;4.47;;;4.07;;
56319;SDS011;42226;42.382;23.748;2022-10-16T10:46:21;5.03;;;3.80;;
56319;SDS011;42226;42.382;23.748;2022-10-16T10:52:24;4.55;;;3.80;;
56319;SDS011;42226;42.382;23.748;2022-10-16T10:55:23;4.63;;;4.00;;
56319;SDS011;42226;42.382;23.748;2022-10-16T10:58:15;4.45;;;3.97;;
56319;SDS011;42226;42.382;23.748;2022-10-16T11:01:26;6.23;;;3.87;;
56319;SDS011;42226;42.382;23.748;2022-10-16T11:07:02;5.38;;;4.10;;
56319;SDS011;42226;42.382;23.748;2022-10-16T11:09:36;4.60;;;3.92;;
56319;SDS011;42226;42.382;23.748;2022-10-16T11:12:18;4.95;;;3.75;;
56319;SDS011;42226;42.382;23.748;2022-10-16T11:15:04;6.40;;;3.83;;
56319;SDS011;42226;42.382;23.748;2022-10-16T11:20:57;3.95;;;3.50;;
56319;SDS011;42226;42.382;23.748;2022-10-16T11:26:21;5.50;;;4.10;;
56319;SDS011;42226;42.382;23.748;2022-10-16T11:29:01;6.40;;;3.70;;
56319;SDS011;42226;42.382;23.748;2022-10-16T11:37:19;4.70;;;3.45;;
56319;SDS011;42226;42.382;23.748;2022-10-16T11:39:54;6.20;;;3.30;;
56319;SDS011;42226;42.382;23.748;2022-10-16T11:42:32;3.53;;;3.22;;
56319;SDS011;42226;42.382;23.748;2022-10-16T11:51:16;3.50;;;3.20;;
56319;SDS011;42226;42.382;23.748;2022-10-16T11:54:14;3.67;;;3.17;;
56319;SDS011;42226;42.382;23.748;2022-10-16T11:57:20;3.90;;;3.33;;
56319;SDS011;42226;42.382;23.748;2022-10-16T11:59:58;4.18;;;3.63;;
56319;SDS011;42226;42.382;23.748;2022-10-16T12:05:24;4.10;;;3.20;;
56319;SDS011;42226;42.382;23.748;2022-10-16T12:08:11;5.10;;;3.60;;
56319;SDS011;42226;42.382;23.748;2022-10-16T12:10:41;4.00;;;3.40;;
56319;SDS011;42226;42.382;23.748;2022-10-16T12:13:32;3.70;;;2.95;;
56319;SDS011;42226;42.382;23.748;2022-10-16T12:18:40;4.90;;;3.50;;
56319;SDS011;42226;42.382;23.748;2022-10-16T12:21:13;3.80;;;3.33;;
56319;SDS011;42226;42.382;23.748;2022-10-16T12:26:25;3.78;;;3.20;;
56319;SDS011;42226;42.382;23.748;2022-10-16T12:28:56;3.70;;;3.03;;
56319;SDS011;42226;42.382;23.748;2022-10-16T12:31:54;3.17;;;2.85;;
56319;SDS011;42226;42.382;23.748;2022-10-16T12:37:10;3.30;;;3.00;;
56319;SDS011;42226;42.382;23.748;2022-10-16T12:39:46;3.25;;;2.95;;
56319;SDS011;42226;42.382;23.748;2022-10-16T12:44:56;3.75;;;2.97;;
56319;SDS011;42226;42.382;23.748;2022-10-16T12:47:35;3.17;;;2.80;;
56319;SDS011;42226;42.382;23.748;2022-10-16T12:53:23;3.63;;;2.88;;
56319;SDS011;42226;42.382;23.748;2022-10-16T13:05:21;3.28;;;2.95;;
56319;SDS011;42226;42.382;23.748;2022-10-16T13:11:11;3.25;;;2.95;;
56319;SDS011;42226;42.382;23.748;2022-10-16T13:14:01;4.47;;;2.80;;
56319;SDS011;42226;42.382;23.748;2022-10-16T13:17:40;3.35;;;2.97;;
56319;SDS011;42226;42.382;23.748;2022-10-16T13:20:34;4.13;;;2.80;;
56319;SDS011;42226;42.382;23.748;2022-10-16T13:26:29;4.07;;;2.90;;
56319;SDS011;42226;42.382;23.748;2022-10-16T13:29:16;4.68;;;3.10;;
56319;SDS011;42226;42.382;23.748;2022-10-16T13:31:44;3.45;;;2.63;;
56319;SDS011;42226;42.382;23.748;2022-10-16T13:34:14;4.15;;;2.55;;
56319;SDS011;42226;42.382;23.748;2022-10-16T13:36:47;3.10;;;2.80;;
56319;SDS011;42226;42.382;23.748;2022-10-16T13:39:24;4.03;;;2.92;;
56319;SDS011;42226;42.382;23.748;2022-10-16T13:42:10;3.17;;;2.75;;
56319;SDS011;42226;42.382;23.748;2022-10-16T13:44:50;3.28;;;2.90;;
56319;SDS011;42226;42.382;23.748;2022-10-16T13:47:29;4.32;;;2.78;;
56319;SDS011;42226;42.382;23.748;2022-10-16T13:50:06;3.28;;;2.83;;
56319;SDS011;42226;42.382;23.748;2022-10-16T13:52:39;3.35;;;2.75;;
56319;SDS011;42226;42.382;23.748;2022-10-16T13:55:13;3.88;;;2.97;;
56319;SDS011;42226;42.382;23.748;2022-10-16T13:57:44;5.25;;;3.33;;
56319;SDS011;42226;42.382;23.748;2022-10-16T14:00:25;3.65;;;2.95;;
56319;SDS011;42226;42.382;23.748;2022-10-16T14:03:02;3.75;;;3.30;;
56319;SDS011;42226;42.382;23.748;2022-10-16T14:05:54;3.58;;;3.00;;
56319;SDS011;42226;42.382;23.748;2022-10-16T14:10:55;4.03;;;3.13;;
56319;SDS011;42226;42.382;23.748;2022-10-16T14:13:34;3.88;;;3.00;;
56319;SDS011;42226;42.382;23.748;2022-10-16T14:16:09;4.35;;;2.90;;
56319;SDS011;42226;42.382;23.748;2022-10-16T14:18:45;5.20;;;3.00;;
56319;SDS011;42226;42.382;23.748;2022-10-16T14:21:22;4.10;;;3.00;;
56319;SDS011;42226;42.382;23.748;2022-10-16T14:23:50;4.35;;;3.30;;
56319;SDS011;42226;42.382;23.748;2022-10-16T14:26:19;5.05;;;3.20;;
56319;SDS011;42226;42.382;23.748;2022-10-16T14:31:41;3.85;;;3.08;;
56319;SDS011;42226;42.382;23.748;2022-10-16T14:34:27;3.90;;;3.35;;
56319;SDS011;42226;42.382;23.748;2022-10-16T14:37:05;3.78;;;3.28;;
56319;SDS011;42226;42.382;23.748;2022-10-16T14:39:49;4.00;;;3.05;;
56319;SDS011;42226;42.382;23.748;2022-10-16T14:42:18;3.63;;;2.95;;
56319;SDS011;42226;42.382;23.748;2022-10-16T14:44:50;4.65;;;3.20;;
56319;SDS011;42226;42.382;23.748;2022-10-16T14:47:20;4.50;;;3.42;;
56319;SDS011;42226;42.382;23.748;2022-10-16T14:49:52;3.65;;;2.95;;
56319;SDS011;42226;42.382;23.748;2022-10-16T14:52:33;5.47;;;3.20;;
56319;SDS011;42226;42.382;23.748;2022-10-16T14:55:01;4.10;;;3.15;;
56319;SDS011;42226;42.382;23.748;2022-10-16T14:57:29;4.22;;;3.00;;
56319;SDS011;42226;42.382;23.748;2022-10-16T14:59:59;4.70;;;3.20;;
56319;SDS011;42226;42.382;23.748;2022-10-16T15:02:33;3.28;;;2.97;;
56319;SDS011;42226;42.382;23.748;2022-10-16T15:05:15;3.70;;;3.00;;
56319;SDS011;42226;42.382;23.748;2022-10-16T15:07:46;4.35;;;3.30;;
56319;SDS011;42226;42.382;23.748;2022-10-16T15:10:14;3.55;;;2.90;;
56319;SDS011;42226;42.382;23.748;2022-10-16T15:12:43;3.65;;;3.20;;
56319;SDS011;42226;42.382;23.748;2022-10-16T15:15:21;3.42;;;3.13;;
56319;SDS011;42226;42.382;23.748;2022-10-16T15:18:00;3.60;;;3.13;;
56319;SDS011;42226;42.382;23.748;2022-10-16T15:20:29;5.13;;;3.40;;
56319;SDS011;42226;42.382;23.748;2022-10-16T15:23:01;4.07;;;3.20;;
56319;SDS011;42226;42.382;23.748;2022-10-16T15:25:49;4.28;;;3.45;;
56319;SDS011;42226;42.382;23.748;2022-10-16T15:28:18;3.58;;;3.28;;
56319;SDS011;42226;42.382;23.748;2022-10-16T15:30:49;6.53;;;3.60;;
56319;SDS011;42226;42.382;23.748;2022-10-16T15:33:19;4.50;;;3.20;;
56319;SDS011;42226;42.382;23.748;2022-10-16T15:35:58;10.93;;;3.75;;
56319;SDS011;42226;42.382;23.748;2022-10-16T15:38:27;4.03;;;3.28;;
56319;SDS011;42226;42.382;23.748;2022-10-16T15:40:56;5.05;;;3.60;;
56319;SDS011;42226;42.382;23.748;2022-10-16T15:43:23;4.20;;;3.00;;
56319;SDS011;42226;42.382;23.748;2022-10-16T15:46:01;3.67;;;3.38;;
56319;SDS011;42226;42.382;23.748;2022-10-16T15:48:32;4.40;;;3.30;;
56319;SDS011;42226;42.382;23.748;2022-10-16T15:51:00;3.67;;;3.17;;
56319;SDS011;42226;42.382;23.748;2022-10-16T15:53:32;4.43;;;4.03;;
56319;SDS011;42226;42.382;23.748;2022-10-16T15:56:04;4.40;;;4.00;;
56319;SDS011;42226;42.382;23.748;2022-10-16T15:58:33;5.88;;;3.92;;
56319;SDS011;42226;42.382;23.748;2022-10-16T16:01:00;4.57;;;3.47;;
56319;SDS011;42226;42.382;23.748;2022-10-16T16:03:28;4.68;;;3.55;;
56319;SDS011;42226;42.382;23.748;2022-10-16T16:05:58;3.50;;;3.20;;
56319;SDS011;42226;42.382;23.748;2022-10-16T16:11:05;4.55;;;3.55;;
56319;SDS011;42226;42.382;23.748;2022-10-16T16:13:35;4.30;;;3.90;;
56319;SDS011;42226;42.382;23.748;2022-10-16T16:16:06;4.90;;;3.58;;
56319;SDS011;42226;42.382;23.748;2022-10-16T16:18:38;4.72;;;3.90;;
56319;SDS011;42226;42.382;23.748;2022-10-16T16:21:08;4.47;;;4.07;;
56319;SDS011;42226;42.382;23.748;2022-10-16T16:23:38;4.82;;;4.03;;
56319;SDS011;42226;42.382;23.748;2022-10-16T16:26:06;4.47;;;4.03;;
56319;SDS011;42226;42.382;23.748;2022-10-16T16:28:40;4.28;;;3.97;;
56319;SDS011;42226;42.382;23.748;2022-10-16T16:31:08;4.35;;;3.90;;
56319;SDS011;42226;42.382;23.748;2022-10-16T16:33:35;4.60;;;4.20;;
56319;SDS011;42226;42.382;23.748;2022-10-16T16:36:03;4.63;;;4.18;;
56319;SDS011;42226;42.382;23.748;2022-10-16T16:38:33;4.95;;;3.67;;
56319;SDS011;42226;42.382;23.748;2022-10-16T16:41:21;5.78;;;4.53;;